• Join FlightAware (Why Join?)
  • Login
  • US Flag 
12:21PM EDT


 

Airport Tracker/Info


-or-


 

Live Flight TrackerFlight Track Log ✈ VNR131 ✈ 01-May-2012 ✈ KLEB - KTEB

Flight Track Log - Related Links

Times and Time Zones

All times are in EDT time to prevent confusion due to time zone crossing. See the VNR131 flight status page for this flight to view local times or setup timezone preferences in your user account.

Time Position Orientation Groundspeed Altitude Reporting Facility
EDT Latitude Longitude Course Direction KTS MPH feet Rate Location/Type
05:19PM 43.6172 -72.2594 235° Southwest 254 292 6,000  Level Boston Center
05:20PM 43.5861 -72.3197 234° Southwest 196 226 7,900 1,800 Climbing Boston Center
05:21PM 43.5508 -72.3856 235° Southwest 201 231 9,600 1,740 Climbing Boston Center
05:22PM 43.5153 -72.4544 232° Southwest 214 246 11,400 1,740 Climbing Boston Center
05:23PM 43.4758 -72.5231 234° Southwest 233 268 13,100 1,800 Climbing Boston Center
05:24PM 43.4361 -72.5972 232° Southwest 238 274 15,000 1,380 Climbing Boston Center
05:25PM 43.3942 -72.6714 232° Southwest 244 281 15,900 420 Climbing Boston Center
05:26PM 43.3439 -72.7597 233° Southwest 272 313 15,900  Level Boston Center
05:27PM 43.2936 -72.8508 232° Southwest 290 334 15,900  Level Boston Center
05:28PM 43.2411 -72.9444 230° Southwest 303 349 15,900  Level Boston Center
05:29PM 43.1825 -73.0408 233° Southwest 303 349 15,900  Level Boston Center
05:30PM 43.1361 -73.1258 219° Southwest 314 361 15,900  Level Boston Center
05:31PM 43.0669 -73.2017 217° Southwest 314 361 15,900  Level Boston Center
05:32PM 42.9956 -73.2747 218° Southwest 319 367 15,900  Level Boston Center
05:33PM 42.9261 -73.3475 217° Southwest 319 367 15,900  Level Boston Center
05:34PM 42.8567 -73.4200 217° Southwest 324 373 16,000  Climbing Boston Center
05:35PM 42.7853 -73.4925 217° Southwest 324 373 16,000  Level Boston Center
05:36PM 42.7136 -73.5647 218° Southwest 324 373 16,000  Level Boston Center
05:37PM 42.6464 -73.6369 216° Southwest 324 373 16,000  Level Boston Center
05:38PM 42.5747 -73.7089 222° Southwest 324 373 16,000 -300 Level Boston Center
05:39PM 42.5111 -73.7864 246° West 324 373 15,400 -900 Descending Boston Center
05:40PM 42.4786 -73.8842 247° West 298 343 14,300 -720 Descending Boston Center
05:41PM 42.4461 -73.9875 221° Southwest 303 349 14,000 -180 Descending Boston Center
05:42PM 42.3825 -74.0619 210° Southwest 295 339 14,000  Level Boston Center
05:43PM 42.3044 -74.1217 210° Southwest 310 357 14,000  Level Boston Center
05:44PM 42.2203 -74.1867 209° Southwest 327 376 14,000  Level Boston Center
05:45PM 42.1422 -74.2461 208° Southwest 327 376 14,000  Level Boston Center
05:46PM 42.0642 -74.3025 209° Southwest 327 376 14,000 -540 Level Boston Center
05:47PM 41.9861 -74.3617 209° Southwest 322 371 13,000 -1,200 Descending Boston Center
05:48PM 41.9100 -74.4181 209° Southwest 317 365 11,600 -1,500 Descending Boston Center
05:49PM 41.8383 -74.4714 208° Southwest 306 352 10,000 -1,440 Descending Boston Center
05:50PM 41.7642 -74.5247 189° South 306 352 8,800 -1,320 Descending Boston Center
05:51PM 41.6869 -74.5417 186° South 293 337 7,400 -900 Descending Boston Center
05:52PM 41.6075 -74.5531 189° South 288 331 7,100 -240 Descending Boston Center
05:53PM 41.5281 -74.5697 187° South 293 337 7,000 -300 Descending Boston Center
05:54PM 41.4547 -74.5811 187° South 293 337 6,500 -420 Descending Boston Center
05:55PM 41.3333 -74.6000 180° South 281 323 6,100 -600 Descending New York TRACON
05:56PM 41.2667 -74.6000 171° South 291 335 5,100 -1,020 Descending New York TRACON
05:57PM 41.1833 -74.5833 180° South 287 330 4,200 -600 Descending New York TRACON
05:58PM 41.1167 -74.5833 180° South 278 320 4,000 -360 Descending New York TRACON
05:59PM 41.0333 -74.5833 171° South 279 321 3,500 -480 Descending New York TRACON
06:00PM 40.9500 -74.5667 169° South 272 313 3,000 -300 Descending New York TRACON
06:01PM 40.8833 -74.5500 159° South 274 315 3,000  Level New York TRACON
06:02PM 40.8167 -74.5167 128° Southeast 261 300 3,000  Level New York TRACON
06:03PM 40.7667 -74.4333 143° Southeast 242 278 3,000 -480 Level New York TRACON
06:04PM 40.7167 -74.3833 90° East 216 249 2,100 -540 Descending New York TRACON
06:05PM 40.7167 -74.3167 72° East 196 226 2,000 -240 Descending New York TRACON
06:06PM 40.7333 -74.2500 49° Northeast 191 220 1,700 -300 Descending New York TRACON
06:07PM 40.7667 -74.2000 49° Northeast 176 203 1,500 -120 Descending New York TRACON
06:08PM 40.8000 -74.1500 66° East 173 199 1,500 -360 Level New York TRACON
06:09PM 40.8167 -74.1000 66° East 140 161 800 -720 Descending New York TRACON